sensor_id;sensor_type;location;lat;lon;timestamp;P1;durP1;ratioP1;P2;durP2;ratioP2
47896;SDS011;39629;51.400;5.494;2022-09-09T00:00:54;1.05;;;0.50;;
47896;SDS011;39629;51.400;5.494;2022-09-09T00:06:06;0.95;;;0.50;;
47896;SDS011;39629;51.400;5.494;2022-09-09T00:11:15;1.48;;;0.50;;
47896;SDS011;39629;51.400;5.494;2022-09-09T00:16:21;1.10;;;0.50;;
47896;SDS011;39629;51.400;5.494;2022-09-09T00:21:26;0.98;;;0.40;;
47896;SDS011;39629;51.400;5.494;2022-09-09T00:26:35;0.85;;;0.40;;
47896;SDS011;39629;51.400;5.494;2022-09-09T00:31:42;1.23;;;0.50;;
47896;SDS011;39629;51.400;5.494;2022-09-09T00:36:44;1.10;;;0.45;;
47896;SDS011;39629;51.400;5.494;2022-09-09T00:41:50;1.30;;;0.60;;
47896;SDS011;39629;51.400;5.494;2022-09-09T00:47:12;1.15;;;0.50;;
47896;SDS011;39629;51.400;5.494;2022-09-09T00:52:29;1.45;;;0.60;;
47896;SDS011;39629;51.400;5.494;2022-09-09T00:57:38;1.60;;;0.60;;
47896;SDS011;39629;51.400;5.494;2022-09-09T01:02:44;2.22;;;0.80;;
47896;SDS011;39629;51.400;5.494;2022-09-09T01:07:54;0.60;;;0.32;;
47896;SDS011;39629;51.400;5.494;2022-09-09T01:12:55;1.50;;;0.60;;
47896;SDS011;39629;51.400;5.494;2022-09-09T01:18:05;2.78;;;0.63;;
47896;SDS011;39629;51.400;5.494;2022-09-09T01:23:19;1.35;;;0.73;;
47896;SDS011;39629;51.400;5.494;2022-09-09T01:28:57;2.03;;;0.60;;
47896;SDS011;39629;51.400;5.494;2022-09-09T01:34:08;2.55;;;0.70;;
47896;SDS011;39629;51.400;5.494;2022-09-09T01:39:13;1.95;;;0.68;;
47896;SDS011;39629;51.400;5.494;2022-09-09T01:44:17;3.00;;;0.70;;
47896;SDS011;39629;51.400;5.494;2022-09-09T01:49:20;1.48;;;0.60;;
47896;SDS011;39629;51.400;5.494;2022-09-09T01:54:24;1.17;;;0.60;;
47896;SDS011;39629;51.400;5.494;2022-09-09T01:59:36;1.17;;;0.60;;
47896;SDS011;39629;51.400;5.494;2022-09-09T02:04:50;3.85;;;0.90;;
47896;SDS011;39629;51.400;5.494;2022-09-09T02:09:59;1.55;;;0.63;;
47896;SDS011;39629;51.400;5.494;2022-09-09T02:15:11;2.28;;;0.57;;
47896;SDS011;39629;51.400;5.494;2022-09-09T02:20:22;2.03;;;0.45;;
47896;SDS011;39629;51.400;5.494;2022-09-09T02:25:32;3.63;;;0.70;;
47896;SDS011;39629;51.400;5.494;2022-09-09T02:30:48;1.75;;;0.65;;
47896;SDS011;39629;51.400;5.494;2022-09-09T02:35:58;3.92;;;1.00;;
47896;SDS011;39629;51.400;5.494;2022-09-09T02:41:08;2.80;;;0.80;;
47896;SDS011;39629;51.400;5.494;2022-09-09T02:46:36;2.00;;;0.60;;
47896;SDS011;39629;51.400;5.494;2022-09-09T02:51:50;5.43;;;0.60;;
47896;SDS011;39629;51.400;5.494;2022-09-09T02:57:04;2.80;;;0.57;;
47896;SDS011;39629;51.400;5.494;2022-09-09T03:02:13;1.33;;;0.50;;
47896;SDS011;39629;51.400;5.494;2022-09-09T03:07:17;2.05;;;0.52;;
47896;SDS011;39629;51.400;5.494;2022-09-09T03:12:20;4.32;;;0.70;;
47896;SDS011;39629;51.400;5.494;2022-09-09T03:17:23;1.23;;;0.60;;
47896;SDS011;39629;51.400;5.494;2022-09-09T03:22:29;1.40;;;0.57;;
47896;SDS011;39629;51.400;5.494;2022-09-09T03:27:33;2.63;;;0.65;;
47896;SDS011;39629;51.400;5.494;2022-09-09T03:32:38;2.88;;;0.60;;
47896;SDS011;39629;51.400;5.494;2022-09-09T03:37:40;4.43;;;0.60;;
47896;SDS011;39629;51.400;5.494;2022-09-09T03:42:44;1.98;;;0.70;;
47896;SDS011;39629;51.400;5.494;2022-09-09T03:47:46;2.00;;;0.52;;
47896;SDS011;39629;51.400;5.494;2022-09-09T03:52:49;2.90;;;0.50;;
47896;SDS011;39629;51.400;5.494;2022-09-09T03:57:55;2.47;;;0.60;;
47896;SDS011;39629;51.400;5.494;2022-09-09T04:02:59;4.13;;;0.60;;
47896;SDS011;39629;51.400;5.494;2022-09-09T04:08:01;2.30;;;0.50;;
47896;SDS011;39629;51.400;5.494;2022-09-09T04:13:03;2.50;;;0.80;;
47896;SDS011;39629;51.400;5.494;2022-09-09T04:18:07;1.95;;;0.80;;
47896;SDS011;39629;51.400;5.494;2022-09-09T04:23:08;1.98;;;0.60;;
47896;SDS011;39629;51.400;5.494;2022-09-09T04:28:10;4.45;;;0.98;;
47896;SDS011;39629;51.400;5.494;2022-09-09T04:33:13;2.25;;;0.70;;
47896;SDS011;39629;51.400;5.494;2022-09-09T04:38:16;3.63;;;1.10;;
47896;SDS011;39629;51.400;5.494;2022-09-09T04:43:19;5.60;;;0.80;;
47896;SDS011;39629;51.400;5.494;2022-09-09T04:48:24;4.17;;;0.70;;
47896;SDS011;39629;51.400;5.494;2022-09-09T04:53:26;2.67;;;0.77;;
47896;SDS011;39629;51.400;5.494;2022-09-09T04:58:28;6.25;;;1.58;;
47896;SDS011;39629;51.400;5.494;2022-09-09T05:03:31;4.10;;;1.00;;
47896;SDS011;39629;51.400;5.494;2022-09-09T05:08:33;3.67;;;0.98;;
47896;SDS011;39629;51.400;5.494;2022-09-09T05:13:35;4.68;;;0.90;;
47896;SDS011;39629;51.400;5.494;2022-09-09T05:18:38;3.75;;;0.68;;
47896;SDS011;39629;51.400;5.494;2022-09-09T05:23:41;2.83;;;0.80;;
47896;SDS011;39629;51.400;5.494;2022-09-09T05:28:43;2.90;;;0.85;;
47896;SDS011;39629;51.400;5.494;2022-09-09T05:33:47;4.03;;;0.80;;
47896;SDS011;39629;51.400;5.494;2022-09-09T05:38:49;3.13;;;0.77;;
47896;SDS011;39629;51.400;5.494;2022-09-09T05:43:54;3.10;;;0.68;;
47896;SDS011;39629;51.400;5.494;2022-09-09T05:48:58;4.65;;;0.88;;
47896;SDS011;39629;51.400;5.494;2022-09-09T05:54:04;4.15;;;0.93;;
47896;SDS011;39629;51.400;5.494;2022-09-09T05:59:10;4.35;;;1.00;;
47896;SDS011;39629;51.400;5.494;2022-09-09T06:04:14;2.15;;;0.90;;
47896;SDS011;39629;51.400;5.494;2022-09-09T06:09:16;5.45;;;1.08;;
47896;SDS011;39629;51.400;5.494;2022-09-09T06:14:18;7.55;;;1.08;;
47896;SDS011;39629;51.400;5.494;2022-09-09T06:19:23;4.65;;;1.20;;
47896;SDS011;39629;51.400;5.494;2022-09-09T06:24:28;2.47;;;1.10;;
47896;SDS011;39629;51.400;5.494;2022-09-09T06:29:31;5.15;;;1.20;;
47896;SDS011;39629;51.400;5.494;2022-09-09T06:34:34;3.05;;;1.17;;
47896;SDS011;39629;51.400;5.494;2022-09-09T06:39:36;5.80;;;1.58;;
47896;SDS011;39629;51.400;5.494;2022-09-09T06:44:38;6.38;;;1.35;;
47896;SDS011;39629;51.400;5.494;2022-09-09T06:49:45;2.92;;;0.85;;
47896;SDS011;39629;51.400;5.494;2022-09-09T06:54:47;5.32;;;1.40;;
47896;SDS011;39629;51.400;5.494;2022-09-09T06:59:50;6.28;;;1.60;;
47896;SDS011;39629;51.400;5.494;2022-09-09T07:04:55;4.40;;;1.05;;
47896;SDS011;39629;51.400;5.494;2022-09-09T07:09:59;2.97;;;1.30;;
47896;SDS011;39629;51.400;5.494;2022-09-09T07:15:02;3.60;;;1.10;;
47896;SDS011;39629;51.400;5.494;2022-09-09T07:20:06;7.07;;;1.40;;
47896;SDS011;39629;51.400;5.494;2022-09-09T07:25:08;4.05;;;0.90;;
47896;SDS011;39629;51.400;5.494;2022-09-09T07:30:11;7.95;;;1.40;;
47896;SDS011;39629;51.400;5.494;2022-09-09T07:35:14;6.03;;;1.20;;
47896;SDS011;39629;51.400;5.494;2022-09-09T07:40:16;6.53;;;1.00;;
47896;SDS011;39629;51.400;5.494;2022-09-09T07:45:17;4.88;;;1.10;;
47896;SDS011;39629;51.400;5.494;2022-09-09T07:50:21;4.63;;;1.10;;
47896;SDS011;39629;51.400;5.494;2022-09-09T07:55:24;4.50;;;1.05;;
47896;SDS011;39629;51.400;5.494;2022-09-09T08:00:26;3.17;;;1.00;;
47896;SDS011;39629;51.400;5.494;2022-09-09T08:05:32;5.00;;;1.55;;
47896;SDS011;39629;51.400;5.494;2022-09-09T08:10:34;6.17;;;1.10;;
47896;SDS011;39629;51.400;5.494;2022-09-09T08:15:36;10.32;;;1.10;;
47896;SDS011;39629;51.400;5.494;2022-09-09T08:20:40;4.82;;;0.90;;
47896;SDS011;39629;51.400;5.494;2022-09-09T08:25:42;3.78;;;1.10;;
47896;SDS011;39629;51.400;5.494;2022-09-09T08:30:45;3.00;;;0.90;;
47896;SDS011;39629;51.400;5.494;2022-09-09T08:35:51;4.03;;;0.98;;
47896;SDS011;39629;51.400;5.494;2022-09-09T08:40:53;4.00;;;0.90;;
47896;SDS011;39629;51.400;5.494;2022-09-09T08:46:06;4.65;;;1.30;;
47896;SDS011;39629;51.400;5.494;2022-09-09T08:51:16;2.47;;;0.77;;
47896;SDS011;39629;51.400;5.494;2022-09-09T08:56:21;6.63;;;1.10;;
47896;SDS011;39629;51.400;5.494;2022-09-09T09:07:16;3.10;;;1.00;;
47896;SDS011;39629;51.400;5.494;2022-09-09T09:12:29;1.77;;;0.75;;
47896;SDS011;39629;51.400;5.494;2022-09-09T09:17:38;3.42;;;0.80;;
47896;SDS011;39629;51.400;5.494;2022-09-09T09:22:46;9.30;;;0.90;;
47896;SDS011;39629;51.400;5.494;2022-09-09T09:28:02;2.65;;;0.75;;
47896;SDS011;39629;51.400;5.494;2022-09-09T09:33:15;6.70;;;1.30;;
47896;SDS011;39629;51.400;5.494;2022-09-09T09:38:24;5.38;;;0.98;;
47896;SDS011;39629;51.400;5.494;2022-09-09T09:43:31;3.58;;;0.90;;
47896;SDS011;39629;51.400;5.494;2022-09-09T09:48:37;3.95;;;1.13;;
47896;SDS011;39629;51.400;5.494;2022-09-09T09:53:41;4.10;;;1.20;;
47896;SDS011;39629;51.400;5.494;2022-09-09T09:58:49;3.10;;;0.80;;
47896;SDS011;39629;51.400;5.494;2022-09-09T10:03:59;3.67;;;0.90;;
47896;SDS011;39629;51.400;5.494;2022-09-09T10:09:18;2.50;;;0.70;;
47896;SDS011;39629;51.400;5.494;2022-09-09T10:14:24;5.10;;;1.13;;
47896;SDS011;39629;51.400;5.494;2022-09-09T10:19:35;6.05;;;1.50;;
47896;SDS011;39629;51.400;5.494;2022-09-09T10:24:52;5.10;;;1.03;;
47896;SDS011;39629;51.400;5.494;2022-09-09T10:30:09;3.58;;;1.60;;
47896;SDS011;39629;51.400;5.494;2022-09-09T10:35:20;4.70;;;0.97;;
47896;SDS011;39629;51.400;5.494;2022-09-09T10:40:32;4.68;;;0.80;;
47896;SDS011;39629;51.400;5.494;2022-09-09T10:45:38;3.75;;;0.80;;
47896;SDS011;39629;51.400;5.494;2022-09-09T10:50:50;4.28;;;1.10;;
47896;SDS011;39629;51.400;5.494;2022-09-09T10:55:58;4.25;;;0.90;;
47896;SDS011;39629;51.400;5.494;2022-09-09T11:01:08;3.78;;;1.10;;
47896;SDS011;39629;51.400;5.494;2022-09-09T11:06:16;3.47;;;0.90;;
47896;SDS011;39629;51.400;5.494;2022-09-09T11:11:22;3.25;;;0.80;;
47896;SDS011;39629;51.400;5.494;2022-09-09T11:16:30;2.53;;;0.80;;
47896;SDS011;39629;51.400;5.494;2022-09-09T11:21:40;1.98;;;0.75;;
47896;SDS011;39629;51.400;5.494;2022-09-09T11:26:47;3.50;;;1.23;;
47896;SDS011;39629;51.400;5.494;2022-09-09T11:31:58;3.40;;;0.90;;
47896;SDS011;39629;51.400;5.494;2022-09-09T11:37:13;4.60;;;1.03;;
47896;SDS011;39629;51.400;5.494;2022-09-09T11:42:29;2.78;;;0.93;;
47896;SDS011;39629;51.400;5.494;2022-09-09T11:47:32;1.90;;;0.70;;
47896;SDS011;39629;51.400;5.494;2022-09-09T11:52:36;3.08;;;0.82;;
47896;SDS011;39629;51.400;5.494;2022-09-09T11:57:43;4.00;;;0.90;;
47896;SDS011;39629;51.400;5.494;2022-09-09T12:07:50;2.72;;;0.85;;
47896;SDS011;39629;51.400;5.494;2022-09-09T12:13:07;4.10;;;1.02;;
47896;SDS011;39629;51.400;5.494;2022-09-09T12:18:14;4.63;;;0.90;;
47896;SDS011;39629;51.400;5.494;2022-09-09T12:23:25;2.17;;;0.85;;
47896;SDS011;39629;51.400;5.494;2022-09-09T12:28:46;2.80;;;0.90;;
47896;SDS011;39629;51.400;5.494;2022-09-09T12:34:02;3.78;;;0.90;;
47896;SDS011;39629;51.400;5.494;2022-09-09T12:39:15;3.23;;;0.80;;
47896;SDS011;39629;51.400;5.494;2022-09-09T12:44:21;4.82;;;0.82;;
47896;SDS011;39629;51.400;5.494;2022-09-09T12:49:25;4.03;;;1.00;;
47896;SDS011;39629;51.400;5.494;2022-09-09T12:54:31;3.70;;;1.20;;
47896;SDS011;39629;51.400;5.494;2022-09-09T12:59:39;3.53;;;0.80;;
47896;SDS011;39629;51.400;5.494;2022-09-09T13:04:43;3.05;;;0.90;;
47896;SDS011;39629;51.400;5.494;2022-09-09T13:09:48;3.60;;;0.93;;
47896;SDS011;39629;51.400;5.494;2022-09-09T13:14:52;3.55;;;0.90;;
47896;SDS011;39629;51.400;5.494;2022-09-09T13:19:57;2.17;;;0.57;;
47896;SDS011;39629;51.400;5.494;2022-09-09T13:25:03;4.10;;;0.68;;
47896;SDS011;39629;51.400;5.494;2022-09-09T13:30:22;4.13;;;0.80;;
47896;SDS011;39629;51.400;5.494;2022-09-09T13:35:26;3.85;;;1.25;;
47896;SDS011;39629;51.400;5.494;2022-09-09T13:40:27;3.63;;;0.77;;
47896;SDS011;39629;51.400;5.494;2022-09-09T13:45:31;3.40;;;0.70;;
47896;SDS011;39629;51.400;5.494;2022-09-09T13:50:35;3.70;;;0.70;;
47896;SDS011;39629;51.400;5.494;2022-09-09T13:55:37;2.80;;;0.63;;
47896;SDS011;39629;51.400;5.494;2022-09-09T14:00:40;2.10;;;0.57;;
47896;SDS011;39629;51.400;5.494;2022-09-09T14:05:43;3.92;;;0.60;;
47896;SDS011;39629;51.400;5.494;2022-09-09T14:10:45;2.80;;;0.68;;
47896;SDS011;39629;51.400;5.494;2022-09-09T14:15:49;2.58;;;0.80;;
47896;SDS011;39629;51.400;5.494;2022-09-09T14:20:51;1.48;;;0.60;;
47896;SDS011;39629;51.400;5.494;2022-09-09T14:25:52;2.05;;;0.52;;
47896;SDS011;39629;51.400;5.494;2022-09-09T14:30:58;2.45;;;0.60;;
47896;SDS011;39629;51.400;5.494;2022-09-09T14:36:01;2.97;;;0.60;;
47896;SDS011;39629;51.400;5.494;2022-09-09T14:41:04;3.42;;;0.52;;
47896;SDS011;39629;51.400;5.494;2022-09-09T14:46:07;2.80;;;0.60;;
47896;SDS011;39629;51.400;5.494;2022-09-09T14:51:11;2.00;;;0.60;;
47896;SDS011;39629;51.400;5.494;2022-09-09T14:56:16;2.58;;;0.50;;
47896;SDS011;39629;51.400;5.494;2022-09-09T15:01:20;1.52;;;0.65;;
47896;SDS011;39629;51.400;5.494;2022-09-09T15:06:23;3.38;;;0.60;;
47896;SDS011;39629;51.400;5.494;2022-09-09T15:11:25;3.47;;;0.60;;
47896;SDS011;39629;51.400;5.494;2022-09-09T15:16:30;4.07;;;1.10;;
47896;SDS011;39629;51.400;5.494;2022-09-09T15:21:33;6.40;;;1.33;;
47896;SDS011;39629;51.400;5.494;2022-09-09T15:26:36;2.85;;;0.80;;
47896;SDS011;39629;51.400;5.494;2022-09-09T15:31:41;2.80;;;0.70;;
47896;SDS011;39629;51.400;5.494;2022-09-09T15:36:43;3.23;;;0.70;;
47896;SDS011;39629;51.400;5.494;2022-09-09T15:41:47;2.80;;;0.70;;
47896;SDS011;39629;51.400;5.494;2022-09-09T15:46:50;2.78;;;0.70;;
47896;SDS011;39629;51.400;5.494;2022-09-09T15:51:55;3.88;;;0.63;;
47896;SDS011;39629;51.400;5.494;2022-09-09T15:57:00;1.50;;;0.50;;
47896;SDS011;39629;51.400;5.494;2022-09-09T16:02:04;1.17;;;0.60;;
47896;SDS011;39629;51.400;5.494;2022-09-09T16:07:06;1.65;;;0.50;;
47896;SDS011;39629;51.400;5.494;2022-09-09T16:12:08;1.92;;;0.70;;
47896;SDS011;39629;51.400;5.494;2022-09-09T16:17:13;2.35;;;0.63;;
47896;SDS011;39629;51.400;5.494;2022-09-09T16:22:15;2.30;;;0.60;;
47896;SDS011;39629;51.400;5.494;2022-09-09T16:27:18;3.47;;;0.70;;
47896;SDS011;39629;51.400;5.494;2022-09-09T16:32:21;2.35;;;0.70;;
47896;SDS011;39629;51.400;5.494;2022-09-09T16:37:22;3.20;;;0.70;;
47896;SDS011;39629;51.400;5.494;2022-09-09T16:42:24;2.17;;;0.70;;
47896;SDS011;39629;51.400;5.494;2022-09-09T16:47:27;3.97;;;0.77;;
47896;SDS011;39629;51.400;5.494;2022-09-09T16:52:29;0.90;;;0.28;;
47896;SDS011;39629;51.400;5.494;2022-09-09T16:57:31;1.70;;;0.45;;
47896;SDS011;39629;51.400;5.494;2022-09-09T17:02:34;1.52;;;0.40;;
47896;SDS011;39629;51.400;5.494;2022-09-09T17:07:35;2.80;;;0.40;;
47896;SDS011;39629;51.400;5.494;2022-09-09T17:12:37;1.10;;;0.40;;
47896;SDS011;39629;51.400;5.494;2022-09-09T17:17:40;2.25;;;0.60;;
47896;SDS011;39629;51.400;5.494;2022-09-09T17:22:45;5.00;;;2.47;;
47896;SDS011;39629;51.400;5.494;2022-09-09T17:27:46;3.65;;;2.70;;
47896;SDS011;39629;51.400;5.494;2022-09-09T17:32:49;1.80;;;1.17;;
47896;SDS011;39629;51.400;5.494;2022-09-09T17:37:52;2.15;;;0.70;;
47896;SDS011;39629;51.400;5.494;2022-09-09T17:42:55;1.60;;;0.60;;
47896;SDS011;39629;51.400;5.494;2022-09-09T17:47:58;3.00;;;0.85;;
47896;SDS011;39629;51.400;5.494;2022-09-09T17:53:00;2.80;;;0.70;;
47896;SDS011;39629;51.400;5.494;2022-09-09T17:58:02;0.95;;;0.60;;
47896;SDS011;39629;51.400;5.494;2022-09-09T18:03:05;2.30;;;1.20;;
47896;SDS011;39629;51.400;5.494;2022-09-09T18:08:07;1.70;;;0.65;;
47896;SDS011;39629;51.400;5.494;2022-09-09T18:13:08;1.70;;;0.80;;
47896;SDS011;39629;51.400;5.494;2022-09-09T18:18:11;2.10;;;0.82;;
47896;SDS011;39629;51.400;5.494;2022-09-09T18:23:13;1.60;;;0.70;;
47896;SDS011;39629;51.400;5.494;2022-09-09T18:28:15;3.92;;;0.95;;
47896;SDS011;39629;51.400;5.494;2022-09-09T18:33:18;4.28;;;1.00;;
47896;SDS011;39629;51.400;5.494;2022-09-09T18:38:20;4.00;;;1.65;;
47896;SDS011;39629;51.400;5.494;2022-09-09T18:43:23;2.77;;;1.20;;
47896;SDS011;39629;51.400;5.494;2022-09-09T18:48:26;1.67;;;0.75;;
47896;SDS011;39629;51.400;5.494;2022-09-09T18:53:28;2.08;;;0.77;;
47896;SDS011;39629;51.400;5.494;2022-09-09T18:58:30;2.08;;;0.85;;
47896;SDS011;39629;51.400;5.494;2022-09-09T19:03:34;3.15;;;0.90;;
47896;SDS011;39629;51.400;5.494;2022-09-09T19:08:37;2.50;;;0.80;;
47896;SDS011;39629;51.400;5.494;2022-09-09T19:13:40;2.70;;;1.00;;
47896;SDS011;39629;51.400;5.494;2022-09-09T19:18:44;2.38;;;0.98;;
47896;SDS011;39629;51.400;5.494;2022-09-09T19:23:47;1.30;;;0.90;;
47896;SDS011;39629;51.400;5.494;2022-09-09T19:28:50;2.30;;;0.93;;
47896;SDS011;39629;51.400;5.494;2022-09-09T19:33:53;2.05;;;0.95;;
47896;SDS011;39629;51.400;5.494;2022-09-09T19:38:56;4.10;;;1.00;;
47896;SDS011;39629;51.400;5.494;2022-09-09T19:44:00;2.17;;;0.60;;
47896;SDS011;39629;51.400;5.494;2022-09-09T19:49:06;2.17;;;0.90;;
47896;SDS011;39629;51.400;5.494;2022-09-09T19:54:09;1.83;;;0.90;;
47896;SDS011;39629;51.400;5.494;2022-09-09T19:59:13;1.58;;;0.80;;
47896;SDS011;39629;51.400;5.494;2022-09-09T20:04:16;2.92;;;0.85;;
47896;SDS011;39629;51.400;5.494;2022-09-09T20:09:18;2.47;;;1.20;;
47896;SDS011;39629;51.400;5.494;2022-09-09T20:14:20;1.90;;;1.02;;
47896;SDS011;39629;51.400;5.494;2022-09-09T20:19:23;2.38;;;1.05;;
47896;SDS011;39629;51.400;5.494;2022-09-09T20:24:25;2.38;;;1.00;;
47896;SDS011;39629;51.400;5.494;2022-09-09T20:29:26;5.63;;;1.30;;
47896;SDS011;39629;51.400;5.494;2022-09-09T20:34:29;4.65;;;1.05;;
47896;SDS011;39629;51.400;5.494;2022-09-09T20:39:31;3.03;;;1.10;;
47896;SDS011;39629;51.400;5.494;2022-09-09T20:44:34;4.70;;;1.38;;
47896;SDS011;39629;51.400;5.494;2022-09-09T20:49:37;4.20;;;1.00;;
47896;SDS011;39629;51.400;5.494;2022-09-09T20:54:39;4.40;;;1.50;;
47896;SDS011;39629;51.400;5.494;2022-09-09T20:59:41;4.45;;;1.02;;
47896;SDS011;39629;51.400;5.494;2022-09-09T21:04:44;3.17;;;1.40;;
47896;SDS011;39629;51.400;5.494;2022-09-09T21:09:46;3.17;;;1.20;;
47896;SDS011;39629;51.400;5.494;2022-09-09T21:14:47;2.50;;;1.25;;
47896;SDS011;39629;51.400;5.494;2022-09-09T21:19:50;3.05;;;1.30;;
47896;SDS011;39629;51.400;5.494;2022-09-09T21:24:52;5.35;;;1.25;;
47896;SDS011;39629;51.400;5.494;2022-09-09T21:29:54;3.63;;;1.27;;
47896;SDS011;39629;51.400;5.494;2022-09-09T21:34:57;3.45;;;1.10;;
47896;SDS011;39629;51.400;5.494;2022-09-09T21:39:58;5.38;;;1.50;;
47896;SDS011;39629;51.400;5.494;2022-09-09T21:45:00;3.05;;;1.10;;
47896;SDS011;39629;51.400;5.494;2022-09-09T21:50:03;4.25;;;1.33;;
47896;SDS011;39629;51.400;5.494;2022-09-09T21:55:05;7.38;;;1.40;;
47896;SDS011;39629;51.400;5.494;2022-09-09T22:00:08;3.30;;;1.00;;
47896;SDS011;39629;51.400;5.494;2022-09-09T22:05:17;2.58;;;0.90;;
47896;SDS011;39629;51.400;5.494;2022-09-09T22:10:18;2.38;;;1.02;;
47896;SDS011;39629;51.400;5.494;2022-09-09T22:15:20;4.00;;;1.10;;
47896;SDS011;39629;51.400;5.494;2022-09-09T22:20:23;6.40;;;1.30;;
47896;SDS011;39629;51.400;5.494;2022-09-09T22:25:25;2.97;;;1.10;;
47896;SDS011;39629;51.400;5.494;2022-09-09T22:30:27;3.05;;;1.00;;
47896;SDS011;39629;51.400;5.494;2022-09-09T22:35:30;5.30;;;1.13;;
47896;SDS011;39629;51.400;5.494;2022-09-09T22:40:33;2.50;;;1.03;;
47896;SDS011;39629;51.400;5.494;2022-09-09T22:45:35;4.75;;;1.10;;
47896;SDS011;39629;51.400;5.494;2022-09-09T22:50:38;3.47;;;0.93;;
47896;SDS011;39629;51.400;5.494;2022-09-09T22:55:40;4.20;;;1.13;;
47896;SDS011;39629;51.400;5.494;2022-09-09T23:00:43;4.55;;;1.30;;
47896;SDS011;39629;51.400;5.494;2022-09-09T23:05:52;4.32;;;1.30;;
47896;SDS011;39629;51.400;5.494;2022-09-09T23:10:56;5.00;;;1.40;;
47896;SDS011;39629;51.400;5.494;2022-09-09T23:15:58;4.47;;;1.30;;
47896;SDS011;39629;51.400;5.494;2022-09-09T23:21:04;5.32;;;1.40;;
47896;SDS011;39629;51.400;5.494;2022-09-09T23:26:06;6.73;;;1.40;;
47896;SDS011;39629;51.400;5.494;2022-09-09T23:31:11;4.50;;;1.77;;
47896;SDS011;39629;51.400;5.494;2022-09-09T23:36:17;2.60;;;1.48;;
47896;SDS011;39629;51.400;5.494;2022-09-09T23:41:19;3.50;;;1.30;;
47896;SDS011;39629;51.400;5.494;2022-09-09T23:46:24;5.50;;;1.45;;
47896;SDS011;39629;51.400;5.494;2022-09-09T23:51:29;5.03;;;1.63;;
47896;SDS011;39629;51.400;5.494;2022-09-09T23:56:34;7.47;;;2.10;;
